Time;durP1;ratioP1;P1;durP2;ratioP2;P2;SDS_P1;SDS_P2;PMS_P1;PMS_P2;Temp;Humidity;BMP_temperature;BMP_pressure;BME280_temperature;BME280_humidity;BME280_pressure;Samples;Min_cycle;Max_cycle;Signal;HPM_P1;HPM_P2
2022/09/19 00:01:43;;;;;;;1.60;1.50;;;;;;;14.97;60.43;98765.50;7032192;28;20646;-77
2022/09/19 00:05:06;;;;;;;1.60;1.50;;;;;;;14.75;61.01;98767.09;7022651;28;20201;-77
2022/09/19 00:08:28;;;;;;;1.40;1.40;;;;;;;14.79;61.05;98762.03;7004486;28;20214;-76
2022/09/19 00:11:51;;;;;;;2.20;1.70;;;;;;;14.68;61.24;98771.78;7005518;28;20202;-76
2022/09/19 00:15:14;;;;;;;1.90;1.80;;;;;;;14.69;61.35;98753.66;7013291;28;20658;-76
2022/09/19 00:18:35;;;;;;;1.47;1.40;;;;;;;14.94;60.93;98771.41;7032315;28;20262;-77
2022/09/19 00:22:00;;;;;;;1.50;1.50;;;;;;;14.92;60.94;98775.41;7033061;28;20277;-76
2022/09/19 00:25:21;;;;;;;2.40;1.47;;;;;;;14.58;61.13;98759.84;7032593;28;20205;-77
2022/09/19 00:28:44;;;;;;;1.60;1.50;;;;;;;14.65;61.19;98774.16;7031998;28;20303;-77
2022/09/19 00:32:07;;;;;;;1.77;1.23;;;;;;;14.67;60.50;98778.28;7033053;28;20205;-76
2022/09/19 00:35:31;;;;;;;1.27;1.27;;;;;;;14.55;60.74;98788.28;7033054;28;20201;-77
2022/09/19 00:38:53;;;;;;;1.50;1.40;;;;;;;14.39;60.27;98780.78;7031971;28;20220;-77
2022/09/19 00:42:15;;;;;;;1.30;1.30;;;;;;;14.53;60.17;98797.72;7032514;28;20311;-77
2022/09/19 00:45:38;;;;;;;1.00;1.00;;;;;;;14.18;60.90;98800.25;7032637;28;20261;-76
2022/09/19 00:49:02;;;;;;;1.27;1.27;;;;;;;14.32;60.37;98793.59;7031784;28;20225;-77
2022/09/19 00:52:31;;;;;;;1.20;1.20;;;;;;;14.45;59.80;98812.41;7032291;28;20321;-76
2022/09/19 00:55:55;;;;;;;1.90;1.20;;;;;;;14.45;59.72;98803.47;7031243;28;20250;-77
2022/09/19 00:59:16;;;;;;;1.00;1.00;;;;;;;14.30;59.35;98812.00;7021497;28;20205;-77
2022/09/19 01:02:38;;;;;;;1.80;1.40;;;;;;;14.07;60.25;98811.84;7011103;28;20370;-77
2022/09/19 01:06:09;;;;;;;1.23;1.23;;;;;;;13.92;60.50;98816.00;7004072;28;20736;-78
2022/09/19 01:09:43;;;;;;;1.00;1.00;;;;;;;14.03;60.12;98804.38;7048591;28;20192;-79
2022/09/19 01:13:12;;;;;;;1.00;1.00;;;;;;;13.83;60.22;98815.47;7036095;28;20189;-79
2022/09/19 01:16:41;;;;;;;1.23;1.07;;;;;;;13.52;60.88;98814.75;7032297;28;20249;-79
2022/09/19 01:20:56;;;;;;;1.20;1.20;;;;;;;13.35;61.30;98825.34;7031461;28;20247;-79
2022/09/19 01:24:37;;;;;;;1.13;1.13;;;;;;;13.07;61.26;98834.94;7031609;28;20300;-78
2022/09/19 01:28:11;;;;;;;1.27;1.20;;;;;;;12.98;61.70;98838.97;7031016;28;20228;-78
2022/09/19 01:31:36;;;;;;;1.00;1.00;;;;;;;13.27;61.20;98828.31;7031287;28;20250;-78
2022/09/19 01:35:02;;;;;;;1.43;1.10;;;;;;;13.16;61.05;98830.91;7031827;28;20354;-79
2022/09/19 01:38:25;;;;;;;0.90;0.90;;;;;;;12.61;62.39;98835.22;7030901;28;20357;-78
2022/09/19 01:41:48;;;;;;;1.03;1.03;;;;;;;12.30;62.80;98837.06;7031560;28;20271;-78
2022/09/19 01:45:11;;;;;;;1.10;1.10;;;;;;;12.47;62.76;98844.47;7030952;28;20204;-78
2022/09/19 01:48:38;;;;;;;1.00;1.00;;;;;;;12.57;62.49;98863.75;7030615;28;20228;-78
2022/09/19 01:52:03;;;;;;;1.30;1.30;;;;;;;13.15;62.01;98859.84;7031021;28;20236;-78
2022/09/19 01:55:31;;;;;;;1.10;1.10;;;;;;;13.63;59.69;98860.06;7029702;28;20338;-78
2022/09/19 01:58:57;;;;;;;2.17;2.03;;;;;;;13.23;60.64;98856.06;7029733;28;20232;-78
2022/09/19 02:02:28;;;;;;;1.20;1.20;;;;;;;13.36;60.42;98854.06;7030838;28;20242;-79
2022/09/19 02:05:53;;;;;;;1.20;1.20;;;;;;;12.91;60.29;98862.50;7031095;28;20691;-79
2022/09/19 02:09:22;;;;;;;1.40;1.30;;;;;;;12.65;61.05;98868.06;7030552;28;20295;-78
2022/09/19 02:12:44;;;;;;;1.30;1.30;;;;;;;12.84;61.54;98829.25;7024595;28;20202;-78
2022/09/19 02:16:09;;;;;;;1.30;1.30;;;;;;;13.06;61.21;98863.91;7030850;28;20209;-81
2022/09/19 02:19:34;;;;;;;1.67;1.57;;;;;;;13.20;60.29;98857.31;7032996;28;20295;-81
2022/09/19 02:23:00;;;;;;;1.60;1.50;;;;;;;13.29;60.15;98853.28;7030753;28;20278;-81
2022/09/19 02:26:23;;;;;;;1.70;1.40;;;;;;;13.30;59.24;98843.28;7031017;28;20285;-82
2022/09/19 02:29:48;;;;;;;1.30;1.30;;;;;;;12.31;61.39;98847.66;7030062;28;20205;-81
2022/09/19 02:33:10;;;;;;;1.57;1.47;;;;;;;12.81;60.54;98849.44;7030253;28;20208;-81
2022/09/19 02:36:42;;;;;;;1.43;1.43;;;;;;;12.78;61.10;98849.06;7030633;28;20225;-81
2022/09/19 02:40:07;;;;;;;1.90;1.80;;;;;;;12.66;62.24;98845.38;7029849;28;20195;-81
2022/09/19 02:43:37;;;;;;;1.57;1.47;;;;;;;12.50;62.11;98848.59;7030421;28;20211;-81
2022/09/19 02:47:03;;;;;;;1.60;1.50;;;;;;;12.50;61.76;98854.00;7030444;28;20317;-81
2022/09/19 02:50:29;;;;;;;2.30;1.23;;;;;;;12.67;61.89;98857.84;7029951;28;20279;-81
2022/09/19 02:53:55;;;;;;;3.43;1.40;;;;;;;12.54;62.09;98857.94;7030387;28;20291;-81
2022/09/19 02:57:19;;;;;;;2.10;1.67;;;;;;;12.50;61.69;98848.59;7029329;28;20321;-81
2022/09/19 03:00:40;;;;;;;2.03;1.43;;;;;;;12.31;62.18;98833.28;7029902;28;20690;-81
2022/09/19 03:04:14;;;;;;;2.07;1.87;;;;;;;12.47;61.99;98851.75;7033559;28;20272;-79
2022/09/19 03:07:39;;;;;;;1.57;1.47;;;;;;;12.65;61.73;98844.56;7046572;28;20225;-79
2022/09/19 03:11:06;;;;;;;4.20;1.60;;;;;;;12.35;62.14;98842.66;7030968;28;20234;-79
2022/09/19 03:14:31;;;;;;;2.80;2.47;;;;;;;12.72;61.65;98863.44;7029680;28;20224;-79
2022/09/19 03:17:54;;;;;;;3.50;1.77;;;;;;;12.69;61.98;98870.13;7028636;28;20229;-79
2022/09/19 03:21:21;;;;;;;2.60;1.63;;;;;;;12.56;60.89;98843.16;7028906;28;20233;-78
2022/09/19 03:24:43;;;;;;;4.27;1.67;;;;;;;13.17;60.41;98876.69;7028906;28;20189;-78
2022/09/19 03:28:06;;;;;;;2.33;1.60;;;;;;;13.12;60.62;98876.56;7029130;28;20315;-78
2022/09/19 03:31:28;;;;;;;4.37;1.70;;;;;;;13.69;59.16;98867.31;7028938;28;20212;-78
2022/09/19 03:34:49;;;;;;;4.40;1.70;;;;;;;13.18;59.89;98875.69;7029902;28;20544;-79
2022/09/19 03:38:11;;;;;;;1.87;1.70;;;;;;;13.02;60.95;98880.78;7033700;28;20288;-79
2022/09/19 03:41:34;;;;;;;4.43;1.70;;;;;;;13.22;60.19;98873.34;7034370;28;20229;-79
2022/09/19 03:44:57;;;;;;;2.73;1.90;;;;;;;13.39;60.25;98875.28;7034418;28;20209;-79
2022/09/19 03:48:20;;;;;;;2.83;1.37;;;;;;;13.23;60.29;98870.41;7033610;28;20284;-79
2022/09/19 03:51:42;;;;;;;2.30;1.83;;;;;;;13.37;59.84;98874.69;7034492;28;20209;-78
2022/09/19 03:55:05;;;;;;;6.40;1.60;;;;;;;13.40;59.75;98873.41;7033642;28;20205;-78
2022/09/19 03:58:28;;;;;;;2.50;1.73;;;;;;;13.22;60.41;98889.59;7033002;28;20236;-78
2022/09/19 04:01:54;;;;;;;1.93;1.63;;;;;;;13.36;60.04;98886.56;7033862;28;20313;-78
2022/09/19 04:05:15;;;;;;;3.93;1.70;;;;;;;13.24;60.33;98892.91;7033698;28;20215;-79
2022/09/19 04:08:37;;;;;;;3.27;1.80;;;;;;;13.16;60.12;98893.19;7032610;28;20232;-80
2022/09/19 04:11:59;;;;;;;4.90;1.90;;;;;;;13.27;60.09;98903.31;7032494;28;20284;-78
2022/09/19 04:15:20;;;;;;;3.47;1.80;;;;;;;13.54;58.75;98897.47;7011815;28;20201;-79
2022/09/19 04:18:47;;;;;;;4.43;1.80;;;;;;;13.85;58.74;98889.22;7004854;28;20310;-78
2022/09/19 04:22:08;;;;;;;4.80;1.80;;;;;;;14.22;57.69;98896.38;7012540;28;20201;-78
2022/09/19 04:25:35;;;;;;;3.00;1.97;;;;;;;14.08;58.28;98885.84;7004585;28;20201;-79
2022/09/19 04:28:56;;;;;;;3.27;1.90;;;;;;;14.40;57.39;98890.13;7003891;28;20591;-78
2022/09/19 04:32:18;;;;;;;4.87;2.27;;;;;;;14.16;57.93;98907.28;7004447;28;20626;-78
2022/09/19 04:35:43;;;;;;;8.30;2.07;;;;;;;14.06;58.04;98905.09;7003278;28;20201;-78
2022/09/19 04:39:06;;;;;;;8.13;2.10;;;;;;;13.84;58.49;98917.41;7028874;28;20225;-79
2022/09/19 04:42:28;;;;;;;4.10;1.77;;;;;;;13.77;58.50;98926.63;7027267;28;20232;-78
2022/09/19 04:45:50;;;;;;;5.70;1.90;;;;;;;14.35;57.70;98920.66;7003320;28;20201;-79
2022/09/19 04:49:13;;;;;;;6.27;1.90;;;;;;;13.86;58.64;98914.47;7003103;28;20205;-78
2022/09/19 04:52:38;;;;;;;3.47;2.20;;;;;;;14.18;58.25;98918.72;7006153;28;20201;-79
2022/09/19 04:56:00;;;;;;;5.07;1.73;;;;;;;14.09;58.38;98930.91;7011166;28;20190;-78
2022/09/19 04:59:21;;;;;;;1.80;1.70;;;;;;;14.44;57.35;98923.84;7014840;28;20495;-79
2022/09/19 05:02:44;;;;;;;3.47;1.90;;;;;;;14.40;57.57;98922.69;7030839;28;20245;-79
2022/09/19 05:06:06;;;;;;;5.80;1.90;;;;;;;14.20;57.82;98931.03;7038606;28;20205;-79
2022/09/19 05:09:30;;;;;;;4.50;2.10;;;;;;;14.55;57.10;98932.09;7034270;28;20204;-79
2022/09/19 05:12:51;;;;;;;6.63;1.90;;;;;;;14.40;57.05;98923.47;7035739;28;20258;-79
2022/09/19 05:16:13;;;;;;;7.37;2.37;;;;;;;14.51;57.33;98949.88;7037471;28;20277;-79
2022/09/19 05:19:36;;;;;;;2.83;1.90;;;;;;;14.53;57.36;98950.47;7026604;28;20288;-79
2022/09/19 05:22:59;;;;;;;5.67;2.03;;;;;;;14.72;56.58;98965.69;7024971;28;20239;-79
2022/09/19 05:26:22;;;;;;;6.33;2.30;;;;;;;14.53;56.86;98952.34;7032005;28;20221;-79
2022/09/19 05:29:43;;;;;;;5.17;2.07;;;;;;;14.76;56.49;98972.31;7031931;28;20303;-79
2022/09/19 05:33:06;;;;;;;7.37;2.17;;;;;;;14.30;57.02;98914.22;7017494;28;20209;-79
2022/09/19 05:36:30;;;;;;;4.90;2.17;;;;;;;14.57;56.63;98975.28;7030500;28;20713;-78
2022/09/19 05:39:51;;;;;;;2.60;1.83;;;;;;;14.66;56.44;98972.03;7031072;28;20203;-78
2022/09/19 05:43:14;;;;;;;6.93;2.23;;;;;;;14.79;56.55;98977.28;7031995;28;20224;-79
2022/09/19 05:46:36;;;;;;;9.00;2.33;;;;;;;14.58;56.88;98982.34;7031386;28;20362;-79
2022/09/19 05:49:57;;;;;;;5.17;1.83;;;;;;;14.74;57.02;98989.91;7030408;28;20205;-80
2022/09/19 05:57:00;;;;;;;6.87;2.77;;;;;;;14.96;56.22;98996.50;7030917;28;20630;-79
2022/09/19 06:00:25;;;;;;;3.80;2.30;;;;;;;15.08;55.79;98991.94;7031016;28;20288;-79
2022/09/19 06:03:47;;;;;;;6.50;2.30;;;;;;;14.93;56.01;98977.97;7033029;28;20362;-79
2022/09/19 06:07:08;;;;;;;5.83;2.20;;;;;;;15.14;55.68;99005.44;7029895;28;20256;-79
2022/09/19 06:10:30;;;;;;;4.27;2.43;;;;;;;14.76;55.62;98987.78;7030925;28;20296;-80
2022/09/19 06:17:32;;;;;;;4.93;2.30;;;;;;;14.85;56.29;99013.53;7030894;28;20217;-77
2022/09/19 06:20:57;;;;;;;4.83;2.20;;;;;;;15.18;55.17;98992.25;7030057;28;20288;-78
2022/09/19 06:24:18;;;;;;;3.73;1.97;;;;;;;14.88;55.58;98988.69;7013552;28;20338;-79
2022/09/19 06:27:41;;;;;;;6.77;2.80;;;;;;;15.35;54.93;99015.03;7029328;28;20358;-79
2022/09/19 06:31:03;;;;;;;5.53;2.60;;;;;;;15.33;54.71;98982.66;7030697;28;20204;-81
2022/09/19 06:34:27;;;;;;;6.17;2.97;;;;;;;15.47;54.37;99010.47;7030139;28;20227;-78
2022/09/19 06:37:49;;;;;;;9.40;2.97;;;;;;;14.93;55.96;99021.41;7029026;28;20293;-78
2022/09/19 06:41:10;;;;;;;6.80;2.67;;;;;;;15.20;55.87;99030.84;7002379;28;20237;-78
2022/09/19 06:44:32;;;;;;;4.43;2.40;;;;;;;15.16;55.96;99027.78;7003321;28;20363;-78
2022/09/19 06:47:56;;;;;;;4.23;2.37;;;;;;;15.09;55.36;99028.91;7004283;28;20767;-78
2022/09/19 06:51:19;;;;;;;7.80;2.20;;;;;;;15.26;55.18;99028.06;7018705;28;20420;-78
2022/09/19 06:54:41;;;;;;;6.77;2.10;;;;;;;15.15;55.94;99044.31;7030824;28;20228;-78
2022/09/19 06:58:04;;;;;;;9.60;2.63;;;;;;;15.52;54.75;99038.59;7030560;28;20225;-79
2022/09/19 07:01:26;;;;;;;8.80;2.57;;;;;;;15.26;54.99;99047.06;7031038;28;20264;-78
2022/09/19 07:04:48;;;;;;;10.37;2.30;;;;;;;15.13;54.96;99039.09;7031194;28;20205;-78
2022/09/19 07:08:13;;;;;;;4.50;2.23;;;;;;;15.65;54.37;99056.59;7027022;28;20225;-78
2022/09/19 07:11:37;;;;;;;8.33;2.87;;;;;;;15.07;54.67;99060.91;7007338;28;20553;-78
2022/09/19 07:14:58;;;;;;;7.50;2.50;;;;;;;15.38;55.28;99066.16;7008850;28;20304;-79
2022/09/19 07:18:20;;;;;;;7.37;2.43;;;;;;;15.24;54.62;99048.38;7007574;28;20221;-78
2022/09/19 07:21:41;;;;;;;9.60;2.67;;;;;;;15.29;54.95;99071.06;7008722;28;20363;-81
2022/09/19 07:25:07;;;;;;;8.80;2.97;;;;;;;15.71;54.39;99053.81;7008156;28;20236;-78
2022/09/19 07:28:29;;;;;;;9.23;2.87;;;;;;;15.24;54.77;99023.91;7008428;28;20645;-78
2022/09/19 07:31:51;;;;;;;5.97;2.30;;;;;;;15.39;54.75;99078.72;7009197;28;20214;-79
2022/09/19 07:35:13;;;;;;;12.93;2.67;;;;;;;15.76;54.16;99085.72;7024406;28;20201;-78
2022/09/19 07:38:34;;;;;;;8.97;2.70;;;;;;;15.74;54.11;99066.09;7038315;28;20216;-79
2022/09/19 07:41:57;;;;;;;7.90;2.60;;;;;;;16.08;53.24;99087.09;7044087;28;20308;-79
2022/09/19 07:45:19;;;;;;;5.67;2.30;;;;;;;16.32;52.60;99083.34;7034647;28;20220;-80
2022/09/19 07:48:41;;;;;;;5.37;2.23;;;;;;;15.87;53.38;99079.50;7036244;28;20308;-81
2022/09/19 07:52:03;;;;;;;8.70;2.50;;;;;;;15.68;53.32;99103.19;7035605;28;20285;-79
2022/09/19 07:55:25;;;;;;;8.00;2.43;;;;;;;15.57;54.45;99108.59;7034857;28;20287;-81
2022/09/19 07:58:48;;;;;;;9.67;2.33;;;;;;;15.74;53.46;99104.97;7022749;28;20363;-78
2022/09/19 08:02:10;;;;;;;8.63;2.47;;;;;;;15.51;54.24;99115.75;7009234;28;20272;-80
2022/09/19 08:05:34;;;;;;;7.33;2.40;;;;;;;15.49;54.34;99089.84;7006507;28;20205;-77
2022/09/19 08:08:56;;;;;;;3.80;2.30;;;;;;;16.00;54.19;99133.69;7012420;28;20224;-77
2022/09/19 08:12:17;;;;;;;8.17;2.70;;;;;;;15.65;54.46;99119.13;7033127;28;20257;-78
2022/09/19 08:15:41;;;;;;;7.50;2.80;;;;;;;15.92;54.17;99139.47;7005710;28;20727;-79
2022/09/19 08:19:03;;;;;;;10.93;2.60;;;;;;;16.14;53.55;99130.53;7012184;28;20225;-78
2022/09/19 08:22:25;;;;;;;8.67;2.87;;;;;;;16.14;53.00;99133.25;7033179;28;20231;-79
2022/09/19 08:25:50;;;;;;;6.23;2.47;;;;;;;16.20;53.31;99136.94;7008936;28;20202;-79
2022/09/19 08:29:12;;;;;;;8.80;3.00;;;;;;;16.33;53.03;99145.72;7027543;28;20201;-78
2022/09/19 08:32:35;;;;;;;5.80;2.60;;;;;;;16.42;52.25;99130.75;7034025;28;20208;-78
2022/09/19 08:35:59;;;;;;;8.43;2.43;;;;;;;16.15;52.56;99144.97;7033578;28;20209;-79
2022/09/19 08:39:20;;;;;;;6.43;2.43;;;;;;;16.23;52.45;99131.84;7033112;28;20281;-79
2022/09/19 08:42:45;;;;;;;7.90;2.70;;;;;;;16.56;52.70;99158.56;7034937;28;20224;-79
2022/09/19 08:46:13;;;;;;;9.50;3.33;;;;;;;16.51;52.50;99142.13;7034786;28;20222;-78
2022/09/19 08:49:39;;;;;;;7.50;2.70;;;;;;;16.29;52.39;99124.66;7033301;28;20282;-79
2022/09/19 08:53:03;;;;;;;6.47;2.87;;;;;;;16.45;52.55;99151.22;7033578;28;20228;-78
2022/09/19 08:56:24;;;;;;;8.77;2.50;;;;;;;16.71;51.45;99146.19;7032982;28;20634;-79
2022/09/19 08:59:50;;;;;;;7.83;2.80;;;;;;;17.15;51.33;99147.47;7032456;28;20194;-79
2022/09/19 09:03:16;;;;;;;7.80;2.37;;;;;;;17.38;50.95;99153.72;7032228;28;20225;-79
2022/09/19 09:06:46;;;;;;;9.87;3.20;;;;;;;17.18;50.80;99169.63;7031880;28;20224;-78
2022/09/19 09:10:18;;;;;;;10.63;2.70;;;;;;;17.03;50.91;99144.75;7031725;28;20574;-79
2022/09/19 09:13:47;;;;;;;7.80;2.70;;;;;;;17.13;50.44;99149.59;7032774;28;20205;-80
2022/09/19 09:17:18;;;;;;;6.97;3.23;;;;;;;17.42;49.64;99176.72;7031827;28;20267;-78
2022/09/19 09:20:48;;;;;;;6.30;2.50;;;;;;;16.99;50.00;99176.25;7029200;28;20284;-79
2022/09/19 09:24:15;;;;;;;5.70;2.83;;;;;;;16.95;50.26;99166.91;7017160;28;20881;-79
2022/09/19 09:27:42;;;;;;;8.43;2.63;;;;;;;17.25;49.99;99170.31;7031198;28;20255;-78
2022/09/19 09:31:12;;;;;;;7.47;2.60;;;;;;;16.93;50.26;99162.75;7016757;28;20278;-79
2022/09/19 09:34:40;;;;;;;7.57;2.63;;;;;;;17.01;51.07;99165.97;7007132;28;20195;-79
2022/09/19 09:38:06;;;;;;;12.13;3.10;;;;;;;16.74;51.33;99150.31;7009236;28;20234;-79
2022/09/19 09:41:47;;;;;;;7.63;2.73;;;;;;;17.17;50.89;99175.31;7032126;28;20189;-79
2022/09/19 09:45:15;;;;;;;5.53;2.70;;;;;;;17.12;51.01;99170.56;7031093;28;20316;-79
2022/09/19 09:48:39;;;;;;;6.10;2.70;;;;;;;16.48;51.26;99159.75;7031301;28;20238;-79
2022/09/19 09:52:13;;;;;;;5.93;2.67;;;;;;;17.03;50.27;99179.31;7031831;28;20282;-79
2022/09/19 10:07:10;;;;;;;7.60;2.43;;;;;;;16.84;49.32;99192.25;7032718;28;20219;-78
2022/09/19 10:10:33;;;;;;;6.87;2.37;;;;;;;16.84;49.73;99186.78;7031615;28;20271;-77
2022/09/19 10:14:02;;;;;;;3.10;2.80;;;;;;;17.22;48.98;99189.03;7030934;28;20259;-79
2022/09/19 10:17:25;;;;;;;7.80;2.50;;;;;;;17.63;47.73;99164.34;7031321;28;20233;-78
2022/09/19 10:20:51;;;;;;;6.73;2.23;;;;;;;17.83;48.46;99178.41;7030426;28;20263;-79
2022/09/19 10:24:40;;;;;;;4.00;2.23;;;;;;;17.92;47.97;99180.50;7031304;28;20361;-80
2022/09/19 10:28:17;;;;;;;7.37;2.60;;;;;;;17.92;47.50;99174.22;7031393;28;20231;-80
2022/09/19 10:31:41;;;;;;;6.70;2.47;;;;;;;17.59;47.53;99176.81;7031905;28;20195;-80
2022/09/19 10:35:25;;;;;;;5.87;2.80;;;;;;;17.92;47.61;99161.38;7031432;28;20210;-81
2022/09/19 10:38:49;;;;;;;7.57;2.87;;;;;;;18.14;47.45;99167.00;7030602;28;20220;-80
2022/09/19 10:42:21;;;;;;;4.07;2.30;;;;;;;18.09;47.11;99153.25;7033373;28;20292;-81
2022/09/19 10:45:46;;;;;;;3.87;2.20;;;;;;;18.08;46.71;99174.25;7033392;28;20239;-80
2022/09/19 10:49:17;;;;;;;10.00;2.67;;;;;;;18.45;46.73;99163.78;7033616;28;20229;-80
2022/09/19 10:52:42;;;;;;;4.53;2.33;;;;;;;18.98;45.95;99155.91;7034515;28;20213;-80
2022/09/19 10:56:06;;;;;;;6.13;2.57;;;;;;;18.82;45.91;99162.22;7036261;28;20203;-80
2022/09/19 10:59:35;;;;;;;6.10;2.50;;;;;;;18.48;47.15;99169.56;7039276;28;20348;-79
2022/09/19 11:03:15;;;;;;;6.40;2.63;;;;;;;18.27;46.73;99172.97;7030581;28;20223;-80
2022/09/19 11:06:56;;;;;;;4.40;2.10;;;;;;;17.72;47.48;99166.47;7031544;28;20221;-80
2022/09/19 11:10:33;;;;;;;6.50;2.60;;;;;;;18.62;47.21;99178.25;7030548;28;20640;-80
2022/09/19 11:14:18;;;;;;;5.47;2.20;;;;;;;19.16;46.63;99177.50;7031061;28;20278;-80
2022/09/19 11:17:55;;;;;;;7.53;2.40;;;;;;;19.12;46.33;99165.41;7008079;28;20315;-79
2022/09/19 11:21:29;;;;;;;4.90;2.07;;;;;;;19.04;45.69;99165.84;7032442;28;20205;-80
2022/09/19 11:24:57;;;;;;;9.90;2.77;;;;;;;18.77;46.25;99148.47;7032135;28;20345;-80
2022/09/19 11:28:26;;;;;;;3.00;1.83;;;;;;;18.93;45.94;99172.22;7030790;28;20716;-81
2022/09/19 11:32:03;;;;;;;5.03;2.23;;;;;;;18.99;46.51;99163.03;7031867;28;20274;-81
2022/09/19 11:35:28;;;;;;;5.47;2.80;;;;;;;19.00;46.70;99170.16;7026260;28;20204;-80
2022/09/19 11:38:56;;;;;;;4.93;2.30;;;;;;;19.38;46.63;99172.91;7031897;28;20247;-80
2022/09/19 11:42:26;;;;;;;4.87;3.43;;;;;;;19.42;45.56;99166.72;7033634;28;20208;-80
2022/09/19 11:45:56;;;;;;;4.10;2.03;;;;;;;19.16;45.68;99175.59;7036482;28;20595;-80
2022/09/19 11:49:32;;;;;;;5.27;2.07;;;;;;;19.49;45.85;99150.09;7004708;28;20303;-81
2022/09/19 11:53:07;;;;;;;6.77;2.20;;;;;;;19.07;46.49;99168.06;7003313;28;20201;-80
2022/09/19 11:56:38;;;;;;;4.00;1.93;;;;;;;18.94;46.43;99160.22;7004942;28;20230;-80
2022/09/19 12:00:05;;;;;;;5.33;1.70;;;;;;;19.16;45.33;99161.09;7007883;28;20586;-80
2022/09/19 12:03:41;;;;;;;4.63;1.80;;;;;;;18.64;46.66;99157.81;7008989;28;20597;-81
2022/09/19 12:07:14;;;;;;;5.90;2.37;;;;;;;18.81;47.51;99153.19;7007297;28;20282;-80
2022/09/19 12:10:39;;;;;;;4.90;2.13;;;;;;;19.41;46.07;99137.69;7007194;28;20196;-80
2022/09/19 12:14:05;;;;;;;3.93;2.00;;;;;;;19.58;45.84;99129.44;7008493;28;20347;-80
2022/09/19 12:17:29;;;;;;;4.77;2.20;;;;;;;19.61;44.89;99131.66;7008432;28;20218;-80
2022/09/19 12:20:55;;;;;;;3.30;1.70;;;;;;;19.91;44.47;99129.25;7007953;28;20198;-79
2022/09/19 12:28:06;;;;;;;2.73;1.80;;;;;;;19.86;43.97;99118.28;7008512;28;20245;-80
2022/09/19 12:31:33;;;;;;;2.57;1.70;;;;;;;19.98;44.33;99099.81;7014307;28;20184;-80
2022/09/19 12:35:04;;;;;;;5.07;1.90;;;;;;;20.70;43.24;99134.72;7037908;28;20213;-80
2022/09/19 12:38:32;;;;;;;7.17;2.00;;;;;;;20.45;42.35;99120.81;7033761;28;20223;-80
2022/09/19 12:41:58;;;;;;;2.73;1.83;;;;;;;20.54;43.79;99112.94;7038437;28;20201;-80
2022/09/19 12:45:23;;;;;;;3.77;1.77;;;;;;;20.67;42.73;99104.28;7045469;28;20232;-80
2022/09/19 12:48:52;;;;;;;4.70;2.53;;;;;;;20.92;41.51;99108.06;7032225;28;20228;-77
2022/09/19 12:52:18;;;;;;;2.30;1.60;;;;;;;20.29;42.91;99090.81;7026741;28;20200;-79
2022/09/19 12:55:46;;;;;;;3.40;1.83;;;;;;;20.16;44.04;99118.63;7052985;28;20196;-78
2022/09/19 12:59:14;;;;;;;3.20;1.67;;;;;;;20.56;43.46;99099.81;7034306;28;20323;-79
2022/09/19 13:02:42;;;;;;;3.53;2.47;;;;;;;20.12;44.58;99112.84;7035118;28;20326;-78
2022/09/19 13:06:08;;;;;;;4.13;1.90;;;;;;;20.08;44.27;99091.72;7033008;28;20201;-78
2022/09/19 13:09:34;;;;;;;3.30;1.73;;;;;;;20.44;42.47;99086.28;7033269;28;20280;-78
2022/09/19 13:13:01;;;;;;;5.50;2.20;;;;;;;20.65;41.84;99096.34;7034811;28;20189;-77
2022/09/19 13:16:28;;;;;;;2.00;1.80;;;;;;;20.43;42.58;99094.78;7032783;28;20601;-78
2022/09/19 13:23:35;;;;;;;2.00;1.70;;;;;;;20.52;44.36;99096.75;7031701;28;20213;-78
2022/09/19 13:26:57;;;;;;;3.93;2.00;;;;;;;19.63;46.67;99107.63;7031998;28;20225;-78
2022/09/19 13:30:48;;;;;;;4.33;2.07;;;;;;;19.43;49.38;99102.72;7031291;28;20256;-78
2022/09/19 13:34:40;;;;;;;2.70;1.90;;;;;;;19.23;49.07;99099.72;7031971;28;20578;-78
2022/09/19 13:38:22;;;;;;;6.00;2.37;;;;;;;19.53;48.17;99083.72;7030688;28;20302;-78
2022/09/19 13:41:45;;;;;;;5.13;2.57;;;;;;;19.57;46.15;99082.09;7031317;28;20208;-78
2022/09/19 13:45:13;;;;;;;5.77;2.00;;;;;;;19.40;47.54;99081.34;7029810;28;20229;-77
2022/09/19 13:48:42;;;;;;;3.13;1.90;;;;;;;19.63;47.90;99102.97;7030398;28;20311;-77
2022/09/19 13:52:08;;;;;;;3.53;2.00;;;;;;;18.97;49.50;99092.22;7031351;28;20216;-77
2022/09/19 13:55:32;;;;;;;6.90;2.63;;;;;;;18.92;48.05;99094.06;7031506;28;20185;-77
2022/09/19 13:59:19;;;;;;;6.27;2.47;;;;;;;19.63;46.22;99058.38;7029320;28;20229;-78
2022/09/19 14:02:42;;;;;;;3.83;1.80;;;;;;;20.69;42.71;99071.97;7031136;28;20267;-78
2022/09/19 14:06:29;;;;;;;7.23;1.90;;;;;;;20.48;42.78;99081.13;7030384;28;20225;-78
2022/09/19 14:09:52;;;;;;;2.77;1.60;;;;;;;20.54;42.10;99074.59;7029918;28;20265;-79
2022/09/19 14:13:34;;;;;;;4.40;1.53;;;;;;;20.63;42.28;99084.78;7018058;28;20255;-79
2022/09/19 14:17:13;;;;;;;3.50;1.67;;;;;;;20.32;42.08;99082.06;7002448;28;20230;-79
2022/09/19 14:20:48;;;;;;;4.33;1.80;;;;;;;20.18;42.68;99086.34;7001350;28;20225;-79
2022/09/19 14:24:19;;;;;;;3.80;1.67;;;;;;;20.12;43.47;99099.16;7013002;28;20272;-79
2022/09/19 14:27:55;;;;;;;5.70;2.53;;;;;;;19.61;48.35;99117.97;7016451;28;20231;-79
2022/09/19 14:31:26;;;;;;;8.37;2.47;;;;;;;18.63;51.81;99117.13;7029988;28;20331;-78
2022/09/19 14:35:18;;;;;;;5.77;2.10;;;;;;;18.32;52.22;99123.97;7034526;28;20662;-78
2022/09/19 14:39:07;;;;;;;5.60;2.50;;;;;;;18.57;53.98;99159.06;7009000;28;20781;-78
2022/09/19 14:42:56;;;;;;;2.70;1.80;;;;;;;18.02;53.85;99160.75;7030436;28;20193;-78
2022/09/19 14:46:21;;;;;;;3.13;1.40;;;;;;;18.06;52.67;99146.41;7029749;28;20225;-77
2022/09/19 14:49:48;;;;;;;1.50;1.40;;;;;;;17.53;54.88;99143.16;7029854;28;20298;-78
2022/09/19 14:53:13;;;;;;;2.57;1.30;;;;;;;17.57;55.33;99132.59;7055093;28;20171;-78
2022/09/19 14:56:36;;;;;;;3.20;1.50;;;;;;;17.82;53.59;99135.81;7037261;28;20321;-78
2022/09/19 15:00:13;;;;;;;2.60;2.20;;;;;;;18.12;52.92;99129.03;7029182;28;20202;-78
2022/09/19 15:03:47;;;;;;;2.20;2.00;;;;;;;18.08;51.56;99116.97;7036566;28;20263;-78
2022/09/19 15:07:10;;;;;;;3.97;1.77;;;;;;;17.70;54.69;99126.84;7032163;28;20230;-78
2022/09/19 15:10:37;;;;;;;2.37;1.50;;;;;;;17.96;54.05;99121.66;7030741;28;20345;-79
2022/09/19 15:14:00;;;;;;;2.57;1.53;;;;;;;18.13;53.49;99121.66;7027735;28;20220;-78
2022/09/19 15:17:26;;;;;;;2.43;1.50;;;;;;;18.08;53.11;99116.13;7030934;28;20231;-79
2022/09/19 15:20:58;;;;;;;1.70;1.60;;;;;;;17.49;54.29;99122.91;7032777;28;20735;-80
2022/09/19 15:24:20;;;;;;;7.37;3.43;;;;;;;18.10;53.19;99122.97;7031535;28;20228;-78
2022/09/19 15:27:47;;;;;;;4.53;3.10;;;;;;;18.73;51.37;99114.53;7027431;28;20227;-77
2022/09/19 15:31:19;;;;;;;3.47;2.20;;;;;;;18.12;52.57;99081.81;7019166;28;20301;-78
2022/09/19 15:34:46;;;;;;;2.70;1.60;;;;;;;18.73;51.99;99111.78;7014140;28;20196;-78
2022/09/19 15:38:08;;;;;;;2.80;1.70;;;;;;;17.91;52.93;99104.34;7033824;28;20227;-77
2022/09/19 15:41:30;;;;;;;2.50;1.80;;;;;;;18.04;53.55;99107.59;7034089;28;20266;-78
2022/09/19 15:44:52;;;;;;;3.07;1.80;;;;;;;18.29;53.01;99108.03;7033801;28;20222;-78
2022/09/19 15:48:20;;;;;;;2.90;1.83;;;;;;;17.88;53.17;99107.56;7029589;28;20228;-78
2022/09/19 15:51:54;;;;;;;3.60;1.70;;;;;;;17.87;52.62;99111.38;7005558;28;20192;-78
2022/09/19 15:55:22;;;;;;;3.03;1.70;;;;;;;18.17;52.95;99112.72;7011680;28;20192;-78
2022/09/19 15:58:45;;;;;;;2.33;2.13;;;;;;;18.50;53.03;99101.03;7032113;28;20234;-78
2022/09/19 16:02:15;;;;;;;3.13;2.10;;;;;;;19.07;52.37;99105.19;7033417;28;20660;-79
2022/09/19 16:05:37;;;;;;;2.90;2.00;;;;;;;19.31;50.88;99109.38;7034435;28;20310;-79
2022/09/19 16:09:01;;;;;;;2.70;1.63;;;;;;;19.15;51.94;99104.75;7032889;28;20280;-78
2022/09/19 16:12:34;;;;;;;1.70;1.60;;;;;;;18.75;52.86;99101.47;7034003;28;20220;-78
2022/09/19 16:15:56;;;;;;;2.87;2.03;;;;;;;18.66;53.22;99127.53;7028032;28;20211;-78
2022/09/19 16:19:41;;;;;;;2.10;1.90;;;;;;;18.34;55.13;99121.00;7033456;28;20214;-78
2022/09/19 16:23:04;;;;;;;4.37;2.60;;;;;;;18.66;54.48;99130.25;7033228;28;20316;-78
2022/09/19 16:26:32;;;;;;;2.30;2.10;;;;;;;18.50;55.23;99147.47;7033958;28;20280;-79
2022/09/19 16:29:55;;;;;;;3.40;2.30;;;;;;;18.11;55.76;99140.19;7033398;28;20198;-78
2022/09/19 16:33:17;;;;;;;2.73;2.53;;;;;;;18.30;55.86;99141.63;7011746;28;20345;-78
2022/09/19 16:36:43;;;;;;;4.30;2.27;;;;;;;18.03;56.29;99125.03;7037008;28;20230;-78
2022/09/19 16:40:05;;;;;;;3.77;3.20;;;;;;;18.00;56.55;99103.72;7033519;28;20294;-78